Time;durP1;ratioP1;P1;durP2;ratioP2;P2;SDS_P1;SDS_P2;PMS_P1;PMS_P2;Temp;Humidity;BMP_temperature;BMP_pressure;BME280_temperature;BME280_humidity;BME280_pressure;Samples;Min_cycle;Max_cycle;Signal;HPM_P1;HPM_P2
2022/01/06 00:01:50;;;;;;;16.88;2.72;;;4.10;99.90;;;;;;5116522;28;20128;-70
2022/01/06 00:04:15;;;;;;;10.82;3.03;;;4.10;99.90;;;;;;5116074;28;20469;-70
2022/01/06 00:06:42;;;;;;;19.38;3.83;;;4.00;99.90;;;;;;5115873;28;20541;-70
2022/01/06 00:09:10;;;;;;;15.88;3.08;;;4.00;99.90;;;;;;5114670;28;20120;-70
2022/01/06 00:11:36;;;;;;;22.67;4.15;;;4.00;99.90;;;;;;5114557;28;20563;-70
2022/01/06 00:16:42;;;;;;;17.73;3.13;;;4.00;99.90;;;;;;5114496;28;20445;-70
2022/01/06 00:24:21;;;;;;;19.88;4.22;;;4.20;99.90;;;;;;5115945;28;20043;-70
2022/01/06 00:26:50;;;;;;;18.73;3.67;;;4.40;99.90;;;;;;5115634;28;20411;-70
2022/01/06 00:29:16;;;;;;;30.40;5.10;;;4.50;99.90;;;;;;5114269;28;20089;-71
2022/01/06 00:31:42;;;;;;;18.02;3.90;;;4.60;99.90;;;;;;5115739;28;20487;-71
2022/01/06 00:34:10;;;;;;;14.32;2.40;;;4.60;99.90;;;;;;5116135;28;20067;-70
2022/01/06 00:36:42;;;;;;;15.55;3.58;;;4.60;99.90;;;;;;5114905;28;20039;-70
2022/01/06 00:39:10;;;;;;;17.58;2.90;;;4.60;99.90;;;;;;5115846;28;20039;-71
2022/01/06 00:41:36;;;;;;;16.92;2.83;;;4.60;99.90;;;;;;5114640;28;20035;-70
2022/01/06 00:44:05;;;;;;;16.50;2.88;;;4.60;99.90;;;;;;5115783;28;20055;-70
2022/01/06 00:46:30;;;;;;;13.05;2.65;;;4.60;99.90;;;;;;5113974;28;20113;-70
2022/01/06 00:48:56;;;;;;;17.50;3.60;;;4.60;99.90;;;;;;5115724;28;20070;-70
2022/01/06 00:51:22;;;;;;;13.60;2.88;;;4.50;99.90;;;;;;5115864;28;20047;-71
2022/01/06 00:53:48;;;;;;;13.07;3.05;;;4.50;99.90;;;;;;5114133;28;20081;-71
2022/01/06 00:56:14;;;;;;;11.55;2.88;;;4.40;99.90;;;;;;5113456;28;20055;-71
2022/01/06 00:58:40;;;;;;;16.50;2.88;;;4.40;99.90;;;;;;5114422;28;20498;-71
2022/01/06 01:01:05;;;;;;;19.17;3.25;;;4.30;99.90;;;;;;5114003;28;20035;-71
2022/01/06 01:03:31;;;;;;;14.77;2.72;;;4.30;99.90;;;;;;5113607;28;20043;-71
2022/01/06 01:05:57;;;;;;;21.83;3.75;;;4.30;99.90;;;;;;5113620;28;20422;-70
2022/01/06 01:08:25;;;;;;;15.30;3.33;;;4.30;99.90;;;;;;5113598;28;20047;-70
2022/01/06 01:10:53;;;;;;;23.52;3.78;;;4.20;99.90;;;;;;5114866;28;20039;-70
2022/01/06 01:13:27;;;;;;;19.77;3.17;;;4.20;99.90;;;;;;5114666;28;20071;-70
2022/01/06 01:15:56;;;;;;;16.20;2.97;;;4.20;99.90;;;;;;5114636;28;20043;-70
2022/01/06 01:18:22;;;;;;;20.90;4.13;;;4.10;99.90;;;;;;5113545;28;20119;-70
2022/01/06 01:20:50;;;;;;;19.35;2.90;;;4.10;99.90;;;;;;5114762;28;20031;-70
2022/01/06 01:23:17;;;;;;;12.85;2.88;;;4.10;99.90;;;;;;5114861;28;20035;-70
2022/01/06 01:25:42;;;;;;;20.02;3.45;;;4.10;99.90;;;;;;5112962;28;20046;-70
2022/01/06 01:28:10;;;;;;;23.55;4.00;;;4.10;99.90;;;;;;5114516;28;20036;-70
2022/01/06 01:30:51;;;;;;;25.30;3.20;;;4.10;99.90;;;;;;5115410;28;20429;-70
2022/01/06 01:33:17;;;;;;;10.57;2.72;;;4.10;99.90;;;;;;5114711;28;20111;-70
2022/01/06 01:35:43;;;;;;;17.40;3.55;;;4.00;99.90;;;;;;5114180;28;20162;-70
2022/01/06 01:38:09;;;;;;;16.55;2.80;;;4.00;99.90;;;;;;5114163;28;20035;-70
2022/01/06 01:40:34;;;;;;;12.45;2.65;;;4.00;99.90;;;;;;5114227;28;20081;-70
2022/01/06 01:43:00;;;;;;;14.65;2.50;;;3.90;99.90;;;;;;5114825;28;20071;-70
2022/01/06 01:45:30;;;;;;;11.63;2.35;;;3.90;99.90;;;;;;5113816;28;20124;-70
2022/01/06 01:47:58;;;;;;;14.95;3.42;;;3.90;99.90;;;;;;5112850;28;20168;-70
2022/01/06 01:50:24;;;;;;;14.85;2.72;;;3.80;99.90;;;;;;5112817;28;20157;-70
2022/01/06 01:52:59;;;;;;;11.13;2.90;;;3.80;99.90;;;;;;5114537;28;20114;-70
2022/01/06 01:55:32;;;;;;;7.40;1.60;;;3.90;99.90;;;;;;5114557;28;20046;-70
2022/01/06 01:57:57;;;;;;;10.43;2.42;;;3.80;99.90;;;;;;5114388;28;20452;-70
2022/01/06 02:00:27;;;;;;;14.68;3.63;;;3.70;99.90;;;;;;5113937;28;20140;-70
2022/01/06 02:02:52;;;;;;;7.53;2.13;;;3.70;99.90;;;;;;5112919;28;20582;-70
2022/01/06 02:05:25;;;;;;;8.60;1.85;;;3.70;99.90;;;;;;5112544;28;20118;-70
2022/01/06 02:07:51;;;;;;;10.20;2.58;;;3.70;99.90;;;;;;5113777;28;20040;-70
2022/01/06 02:10:16;;;;;;;10.50;2.05;;;3.60;99.90;;;;;;5112043;28;20046;-70
2022/01/06 02:12:43;;;;;;;11.43;2.50;;;3.60;99.90;;;;;;5112588;28;20036;-71
2022/01/06 02:15:10;;;;;;;7.95;2.50;;;3.60;99.90;;;;;;5112583;28;20039;-71
2022/01/06 02:17:38;;;;;;;9.35;2.75;;;3.60;99.90;;;;;;5112229;28;20499;-71
2022/01/06 02:20:09;;;;;;;9.57;2.00;;;3.70;99.90;;;;;;5112517;28;20043;-71
2022/01/06 02:22:35;;;;;;;6.70;2.40;;;3.70;99.90;;;;;;5114408;28;20036;-71
2022/01/06 02:25:19;;;;;;;10.30;2.35;;;3.70;99.90;;;;;;5113660;28;20151;-71
2022/01/06 02:27:52;;;;;;;10.20;2.20;;;3.70;99.90;;;;;;5113681;28;20044;-71
2022/01/06 02:30:19;;;;;;;9.35;2.00;;;3.70;99.90;;;;;;5113994;28;20040;-71
2022/01/06 02:32:45;;;;;;;9.35;2.17;;;3.70;99.90;;;;;;5113596;28;20043;-71
2022/01/06 02:35:17;;;;;;;11.73;2.50;;;3.70;99.90;;;;;;5114231;28;20040;-71
2022/01/06 02:37:43;;;;;;;14.45;2.35;;;3.70;99.90;;;;;;5113142;28;20050;-71
2022/01/06 02:40:11;;;;;;;16.90;2.90;;;3.70;99.90;;;;;;5113634;28;20460;-71
2022/01/06 02:42:47;;;;;;;7.65;1.60;;;3.70;99.90;;;;;;5114116;28;20032;-71
2022/01/06 02:45:12;;;;;;;7.50;1.77;;;3.70;99.90;;;;;;5114162;28;20047;-71
2022/01/06 02:47:39;;;;;;;9.10;2.10;;;3.60;99.90;;;;;;5113498;28;20040;-71
2022/01/06 02:50:06;;;;;;;10.43;2.67;;;3.60;99.90;;;;;;5113975;28;20036;-71
2022/01/06 02:52:32;;;;;;;14.82;2.10;;;3.60;99.90;;;;;;5113364;28;20040;-71
2022/01/06 02:54:58;;;;;;;10.00;1.90;;;3.60;99.90;;;;;;5112183;28;20039;-71
2022/01/06 02:57:23;;;;;;;12.82;2.78;;;3.70;99.90;;;;;;5111777;28;20502;-71
2022/01/06 02:59:49;;;;;;;8.90;2.78;;;3.80;99.90;;;;;;5112636;28;20044;-71
2022/01/06 03:02:15;;;;;;;8.98;2.25;;;3.80;99.90;;;;;;5113273;28;20068;-71
2022/01/06 03:04:40;;;;;;;12.05;2.00;;;3.80;99.90;;;;;;5113232;28;20368;-71
2022/01/06 03:07:07;;;;;;;12.32;2.45;;;3.80;99.90;;;;;;5111759;28;20052;-70
2022/01/06 03:09:39;;;;;;;12.63;2.13;;;3.80;99.90;;;;;;5113186;28;20098;-71
2022/01/06 03:12:07;;;;;;;10.85;2.33;;;3.80;99.90;;;;;;5113312;28;20043;-71
2022/01/06 03:14:33;;;;;;;11.80;3.88;;;3.80;99.90;;;;;;5113258;28;20039;-71
2022/01/06 03:16:59;;;;;;;14.90;3.70;;;3.80;99.90;;;;;;5112630;28;20046;-70
2022/01/06 03:19:25;;;;;;;9.50;2.13;;;3.80;99.90;;;;;;5113439;28;20034;-71
2022/01/06 03:21:50;;;;;;;12.52;2.00;;;3.70;99.90;;;;;;5116008;28;20164;-71
2022/01/06 03:24:16;;;;;;;13.30;2.63;;;3.70;99.90;;;;;;5117492;28;20038;-71
2022/01/06 03:26:42;;;;;;;15.75;2.65;;;3.70;99.90;;;;;;5115610;28;20499;-71
2022/01/06 03:29:08;;;;;;;16.20;2.20;;;3.60;99.90;;;;;;5117268;28;20046;-71
2022/01/06 03:31:34;;;;;;;13.18;2.33;;;3.60;99.90;;;;;;5099121;28;20046;-71
2022/01/06 03:34:00;;;;;;;13.82;2.50;;;3.60;99.90;;;;;;5116992;28;20123;-71
2022/01/06 03:36:25;;;;;;;9.95;2.28;;;3.60;99.90;;;;;;5116485;28;20283;-71
2022/01/06 03:38:51;;;;;;;15.43;3.22;;;3.60;99.90;;;;;;5115612;28;20040;-71
2022/01/06 03:41:16;;;;;;;13.50;2.20;;;3.60;99.90;;;;;;5117191;28;20028;-71
2022/01/06 03:43:42;;;;;;;16.42;2.33;;;3.50;99.90;;;;;;5116010;28;20417;-71
2022/01/06 03:46:08;;;;;;;14.43;3.00;;;3.50;99.90;;;;;;5116336;28;20514;-71
2022/01/06 03:48:33;;;;;;;9.85;2.25;;;3.50;99.90;;;;;;5115335;28;20101;-71
2022/01/06 03:50:59;;;;;;;8.80;2.15;;;3.40;99.90;;;;;;5115267;28;20040;-71
2022/01/06 03:53:24;;;;;;;10.85;2.55;;;3.40;99.90;;;;;;5116956;28;20067;-71
2022/01/06 03:55:50;;;;;;;19.38;3.30;;;3.30;99.90;;;;;;5115962;28;20042;-71
2022/01/06 03:58:16;;;;;;;12.10;2.28;;;3.30;99.90;;;;;;5115351;28;20479;-71
2022/01/06 04:00:41;;;;;;;8.25;2.20;;;3.20;99.90;;;;;;5116821;28;20468;-71
2022/01/06 04:03:07;;;;;;;23.52;2.72;;;3.20;99.90;;;;;;5115084;28;20044;-71
2022/01/06 04:05:33;;;;;;;15.65;2.63;;;3.10;99.90;;;;;;5115962;28;20480;-71
2022/01/06 04:08:00;;;;;;;12.82;2.10;;;3.00;99.90;;;;;;5115046;28;20035;-71
2022/01/06 04:10:26;;;;;;;11.60;2.35;;;3.00;99.90;;;;;;5116243;28;20605;-71
2022/01/06 04:12:52;;;;;;;11.35;2.72;;;3.00;99.90;;;;;;5116215;28;20126;-71
2022/01/06 04:15:18;;;;;;;7.75;2.28;;;3.00;99.90;;;;;;5114810;28;20043;-71
2022/01/06 04:17:44;;;;;;;12.88;2.20;;;2.90;99.90;;;;;;5115389;28;20079;-71
2022/01/06 04:20:12;;;;;;;9.57;2.33;;;2.90;99.90;;;;;;5115958;28;20373;-71
2022/01/06 04:22:39;;;;;;;12.32;2.63;;;3.00;99.90;;;;;;5114437;28;20074;-71
2022/01/06 04:25:05;;;;;;;10.48;2.70;;;2.90;99.90;;;;;;5116374;28;20406;-71
2022/01/06 04:27:31;;;;;;;14.98;2.05;;;2.90;99.90;;;;;;5114075;28;20047;-71
2022/01/06 04:29:57;;;;;;;11.98;2.08;;;2.90;99.90;;;;;;5116219;28;20442;-71
2022/01/06 04:32:22;;;;;;;11.25;2.15;;;2.90;99.90;;;;;;5114685;28;20071;-71
2022/01/06 04:34:48;;;;;;;11.38;2.08;;;2.80;99.90;;;;;;5114730;28;20035;-71
2022/01/06 04:37:14;;;;;;;12.18;2.50;;;2.80;99.90;;;;;;5114923;28;20047;-71
2022/01/06 04:39:40;;;;;;;14.15;2.80;;;2.80;99.90;;;;;;5115349;28;20047;-71
2022/01/06 04:42:05;;;;;;;10.73;2.58;;;2.80;99.90;;;;;;5115424;28;20035;-71
2022/01/06 04:44:31;;;;;;;10.55;2.40;;;2.80;99.90;;;;;;5114657;28;20050;-71
2022/01/06 04:46:56;;;;;;;14.93;2.22;;;2.70;99.90;;;;;;5113573;28;20370;-71
2022/01/06 04:49:22;;;;;;;12.98;3.20;;;2.70;99.90;;;;;;5115585;28;20032;-71
2022/01/06 04:51:49;;;;;;;8.10;2.58;;;2.70;99.90;;;;;;5115324;28;20040;-71
2022/01/06 04:54:15;;;;;;;8.25;3.00;;;2.70;99.90;;;;;;5115335;28;20039;-71
2022/01/06 04:56:40;;;;;;;12.25;1.90;;;2.60;99.90;;;;;;5114730;28;20364;-71
2022/01/06 04:59:08;;;;;;;6.70;2.33;;;2.60;99.90;;;;;;5115011;28;20079;-71
2022/01/06 05:01:34;;;;;;;12.15;2.63;;;2.60;99.90;;;;;;5115161;28;20047;-71
2022/01/06 05:04:00;;;;;;;13.43;2.40;;;2.50;99.90;;;;;;5113855;28;20036;-71
2022/01/06 05:06:26;;;;;;;14.93;1.90;;;2.50;99.90;;;;;;5114643;28;20051;-71
2022/01/06 05:08:52;;;;;;;12.20;2.60;;;2.50;99.90;;;;;;5114280;28;20419;-70
2022/01/06 05:11:18;;;;;;;19.80;2.83;;;2.40;99.90;;;;;;5097104;28;20069;-71
2022/01/06 05:13:44;;;;;;;16.55;3.40;;;2.40;99.90;;;;;;5113712;28;20047;-71
2022/01/06 05:16:09;;;;;;;12.75;2.58;;;2.40;99.90;;;;;;5113059;28;20044;-71
2022/01/06 05:18:35;;;;;;;15.73;2.33;;;2.40;99.90;;;;;;5115124;28;20036;-71
2022/01/06 05:21:02;;;;;;;17.48;2.22;;;2.40;99.90;;;;;;5113601;28;20071;-71
2022/01/06 05:23:27;;;;;;;9.65;1.55;;;2.40;99.90;;;;;;5114556;28;20047;-71
2022/01/06 05:25:54;;;;;;;13.82;3.17;;;2.30;99.90;;;;;;5113178;28;20043;-71
2022/01/06 05:28:20;;;;;;;11.90;2.17;;;2.30;99.90;;;;;;5114283;28;20044;-71
2022/01/06 05:30:46;;;;;;;18.38;1.98;;;2.30;99.90;;;;;;5114766;28;20046;-71
2022/01/06 05:33:12;;;;;;;12.82;2.53;;;2.30;99.90;;;;;;5114442;28;20048;-71
2022/01/06 05:35:38;;;;;;;12.18;2.10;;;2.30;99.90;;;;;;5114002;28;20043;-71
2022/01/06 05:38:04;;;;;;;10.73;2.67;;;2.30;99.90;;;;;;5114085;28;20407;-71
2022/01/06 05:40:30;;;;;;;11.70;3.08;;;2.30;99.90;;;;;;5113884;28;20040;-71
2022/01/06 05:42:57;;;;;;;14.35;2.72;;;2.40;99.90;;;;;;5114816;28;20267;-71
2022/01/06 05:45:24;;;;;;;10.02;2.30;;;2.30;99.90;;;;;;5114195;28;20062;-71
2022/01/06 05:47:50;;;;;;;9.88;2.25;;;2.30;99.90;;;;;;5114097;28;20438;-70
2022/01/06 05:50:15;;;;;;;14.65;2.65;;;2.30;99.90;;;;;;5112705;28;20067;-71
2022/01/06 05:52:41;;;;;;;12.95;2.33;;;2.30;99.90;;;;;;5095995;28;20035;-71
2022/01/06 05:55:07;;;;;;;18.45;3.92;;;2.30;99.90;;;;;;5114688;28;20101;-71
2022/01/06 05:57:33;;;;;;;14.40;2.83;;;2.30;99.90;;;;;;5113501;28;20089;-71
2022/01/06 05:59:58;;;;;;;12.38;2.83;;;2.30;99.90;;;;;;5114079;28;20040;-71
2022/01/06 06:02:24;;;;;;;9.20;2.60;;;2.30;99.90;;;;;;5114318;28;20059;-71
2022/01/06 06:04:49;;;;;;;12.30;4.72;;;2.30;99.90;;;;;;5114395;28;20046;-71
2022/01/06 06:07:17;;;;;;;15.02;2.90;;;2.30;99.90;;;;;;5114168;28;20043;-71
2022/01/06 06:09:43;;;;;;;12.27;2.58;;;2.30;99.90;;;;;;5114641;28;20492;-71
2022/01/06 06:12:09;;;;;;;17.65;2.97;;;2.20;99.90;;;;;;5113499;28;20043;-71
2022/01/06 06:14:35;;;;;;;16.33;4.03;;;2.20;99.90;;;;;;5113752;28;20035;-71
2022/01/06 06:17:01;;;;;;;7.43;1.88;;;2.20;99.90;;;;;;5113389;28;20084;-70
2022/01/06 06:19:26;;;;;;;11.40;3.08;;;2.20;99.90;;;;;;5113673;28;20042;-71
2022/01/06 06:21:52;;;;;;;18.90;3.58;;;2.10;99.90;;;;;;5114241;28;20046;-70
2022/01/06 06:24:20;;;;;;;15.10;3.20;;;2.10;99.90;;;;;;5113633;28;20171;-71
2022/01/06 06:26:45;;;;;;;15.02;2.67;;;2.10;99.90;;;;;;5113428;28;20048;-70
2022/01/06 06:29:11;;;;;;;17.10;2.38;;;2.10;99.90;;;;;;5113901;28;20061;-70
2022/01/06 06:31:37;;;;;;;10.95;3.05;;;2.10;99.90;;;;;;5112859;28;20051;-70
2022/01/06 06:34:02;;;;;;;10.52;2.83;;;2.10;99.90;;;;;;5113551;28;20043;-70
2022/01/06 06:36:28;;;;;;;14.07;2.85;;;2.10;99.90;;;;;;5113430;28;20046;-70
2022/01/06 06:38:53;;;;;;;12.15;3.38;;;2.00;99.90;;;;;;5114009;28;20028;-70
2022/01/06 06:41:19;;;;;;;16.73;3.13;;;2.00;99.90;;;;;;5113731;28;20035;-70
2022/01/06 06:43:45;;;;;;;19.33;3.17;;;2.00;99.90;;;;;;5112298;28;20043;-70
2022/01/06 06:46:10;;;;;;;12.65;2.60;;;2.00;99.90;;;;;;5113282;28;20399;-70
2022/01/06 06:48:36;;;;;;;13.48;2.92;;;2.00;99.90;;;;;;5112152;28;20054;-69
2022/01/06 06:51:03;;;;;;;20.70;2.88;;;2.00;99.90;;;;;;5111689;28;20089;-70
2022/01/06 06:53:29;;;;;;;16.92;3.28;;;2.10;99.90;;;;;;5111274;28;20122;-69
2022/01/06 06:55:54;;;;;;;23.75;2.97;;;2.10;99.90;;;;;;5111792;28;20057;-70
2022/01/06 06:58:20;;;;;;;20.45;3.55;;;2.00;99.90;;;;;;5115301;28;20031;-70
2022/01/06 07:00:46;;;;;;;15.93;2.92;;;2.00;99.90;;;;;;5116640;27;20487;-70
2022/01/06 07:03:11;;;;;;;13.25;3.22;;;1.90;99.90;;;;;;5116605;28;20035;-69
2022/01/06 07:05:37;;;;;;;11.85;2.20;;;1.90;99.90;;;;;;5116497;28;20096;-69
2022/01/06 07:08:03;;;;;;;10.55;2.95;;;1.90;99.90;;;;;;5116201;28;20093;-70
2022/01/06 07:10:28;;;;;;;14.32;2.75;;;1.90;99.90;;;;;;5099700;28;20383;-70
2022/01/06 07:12:54;;;;;;;19.55;2.38;;;1.90;99.90;;;;;;5117510;28;20081;-70
2022/01/06 07:15:20;;;;;;;14.15;2.97;;;1.90;99.90;;;;;;5117093;28;20032;-70
2022/01/06 07:17:45;;;;;;;16.25;2.85;;;1.80;99.90;;;;;;5115231;28;20039;-69
2022/01/06 07:20:11;;;;;;;13.60;2.63;;;1.80;99.90;;;;;;5117490;28;20040;-70
2022/01/06 07:22:38;;;;;;;10.70;2.33;;;1.80;99.90;;;;;;5116720;28;20185;-70
2022/01/06 07:25:04;;;;;;;11.70;2.35;;;1.80;99.90;;;;;;5115704;28;20032;-70
2022/01/06 07:27:30;;;;;;;10.70;2.22;;;1.80;99.90;;;;;;5116847;28;20052;-70
2022/01/06 07:29:55;;;;;;;14.52;3.50;;;1.80;99.90;;;;;;5115525;28;20050;-70
2022/01/06 07:32:21;;;;;;;15.65;3.53;;;1.80;99.90;;;;;;5116819;28;20043;-70
2022/01/06 07:34:47;;;;;;;13.95;2.78;;;1.80;99.90;;;;;;5117361;27;20111;-70
2022/01/06 07:37:13;;;;;;;14.70;3.10;;;1.80;99.90;;;;;;5116147;28;20085;-69
2022/01/06 07:39:38;;;;;;;19.42;3.15;;;1.80;99.90;;;;;;5117202;28;20027;-70
2022/01/06 07:42:05;;;;;;;20.40;4.40;;;1.80;99.90;;;;;;5116766;28;20078;-70
2022/01/06 07:44:30;;;;;;;15.95;3.80;;;1.80;99.90;;;;;;5116739;27;20047;-70
2022/01/06 07:46:56;;;;;;;20.85;3.58;;;1.80;99.90;;;;;;5115869;28;20081;-68
2022/01/06 07:49:22;;;;;;;9.15;3.67;;;1.80;99.90;;;;;;5116240;28;20067;-69
2022/01/06 07:51:48;;;;;;;24.52;4.45;;;1.80;99.90;;;;;;5115002;28;20043;-69
2022/01/06 07:54:13;;;;;;;15.57;2.58;;;1.80;99.90;;;;;;5116837;28;20039;-68
2022/01/06 07:56:39;;;;;;;23.90;3.70;;;1.80;99.90;;;;;;5115994;28;20031;-69
2022/01/06 07:59:06;;;;;;;11.77;3.28;;;1.80;99.90;;;;;;5116304;28;20093;-69
2022/01/06 08:01:32;;;;;;;17.30;3.45;;;1.80;99.90;;;;;;5116098;28;20043;-69
2022/01/06 08:03:58;;;;;;;15.98;3.67;;;1.90;99.90;;;;;;5116470;28;20047;-69
2022/01/06 08:06:23;;;;;;;12.57;2.83;;;1.90;99.90;;;;;;5115850;28;20033;-69
2022/01/06 08:08:49;;;;;;;17.23;4.32;;;1.90;99.90;;;;;;5113663;28;20484;-69
2022/01/06 08:11:15;;;;;;;18.70;3.95;;;1.90;99.90;;;;;;5115060;28;20130;-69
2022/01/06 08:13:41;;;;;;;20.58;4.05;;;1.90;99.90;;;;;;5103955;28;20035;-68
2022/01/06 08:16:07;;;;;;;14.32;3.17;;;2.00;99.90;;;;;;5095368;28;20046;-69
2022/01/06 08:18:33;;;;;;;15.85;3.97;;;2.00;99.90;;;;;;5094585;28;20042;-69
2022/01/06 08:20:59;;;;;;;16.95;3.50;;;2.00;99.90;;;;;;5095635;28;20112;-69
2022/01/06 08:23:25;;;;;;;13.95;3.33;;;2.10;99.90;;;;;;5094649;28;20036;-69
2022/01/06 08:25:51;;;;;;;17.02;3.95;;;2.10;99.90;;;;;;5095115;28;20476;-68
2022/01/06 08:28:16;;;;;;;12.80;3.30;;;2.20;99.90;;;;;;5093917;28;20040;-69
2022/01/06 08:30:42;;;;;;;16.05;2.63;;;2.20;99.90;;;;;;5095008;28;20407;-69
2022/01/06 08:33:08;;;;;;;24.05;4.28;;;2.20;99.90;;;;;;5095396;28;20056;-69
2022/01/06 08:35:34;;;;;;;18.88;5.18;;;2.30;99.90;;;;;;5094192;28;20426;-68
2022/01/06 08:37:59;;;;;;;18.88;3.25;;;2.30;99.90;;;;;;5094531;28;20040;-68
2022/01/06 08:40:25;;;;;;;20.52;3.95;;;2.30;99.90;;;;;;5094163;28;20066;-69
2022/01/06 08:42:52;;;;;;;16.90;4.68;;;2.40;99.90;;;;;;5094902;28;20040;-69
2022/01/06 08:45:18;;;;;;;22.83;5.32;;;2.40;99.90;;;;;;5094996;28;20044;-69
2022/01/06 08:47:44;;;;;;;19.95;3.78;;;2.50;99.90;;;;;;5093311;28;20069;-69
2022/01/06 08:50:10;;;;;;;12.75;4.15;;;2.50;99.90;;;;;;5094974;28;20075;-69
2022/01/06 08:52:37;;;;;;;18.17;3.50;;;2.60;99.90;;;;;;5094827;28;20082;-69
2022/01/06 08:55:05;;;;;;;18.80;4.20;;;2.70;99.90;;;;;;5093862;28;20040;-69
2022/01/06 08:57:30;;;;;;;11.57;2.83;;;2.70;99.90;;;;;;5094494;28;20388;-68
2022/01/06 08:59:57;;;;;;;20.92;3.92;;;2.90;99.90;;;;;;5095354;28;20040;-68
2022/01/06 09:02:22;;;;;;;19.75;3.38;;;3.10;99.90;;;;;;5093907;28;20048;-68
2022/01/06 09:04:48;;;;;;;19.23;4.57;;;3.20;99.90;;;;;;5092871;28;20040;-68
2022/01/06 09:07:14;;;;;;;19.67;4.07;;;3.30;99.90;;;;;;5092217;28;20044;-68
2022/01/06 09:09:39;;;;;;;13.85;4.07;;;3.50;99.90;;;;;;5093139;28;20416;-68
2022/01/06 09:12:07;;;;;;;12.93;3.60;;;3.50;99.90;;;;;;5094590;28;20527;-68
2022/01/06 09:14:33;;;;;;;30.58;3.75;;;3.60;99.90;;;;;;5094431;28;20032;-68
2022/01/06 09:16:58;;;;;;;12.75;3.58;;;3.60;99.90;;;;;;5093941;28;20093;-68
2022/01/06 09:19:24;;;;;;;12.65;3.28;;;3.80;99.90;;;;;;5105931;28;20051;-68
2022/01/06 09:21:50;;;;;;;10.40;3.17;;;3.90;99.90;;;;;;5113250;28;20171;-68
2022/01/06 09:24:18;;;;;;;16.13;3.80;;;4.00;99.90;;;;;;5114678;28;20050;-69
2022/01/06 09:26:43;;;;;;;29.08;4.20;;;4.00;99.90;;;;;;5114432;28;20036;-68
2022/01/06 09:29:09;;;;;;;18.70;4.22;;;4.10;99.90;;;;;;5105405;28;20039;-68
2022/01/06 09:31:36;;;;;;;17.30;3.17;;;4.20;99.90;;;;;;5105137;28;20036;-68
2022/01/06 09:34:03;;;;;;;15.77;4.57;;;4.20;99.90;;;;;;5102737;28;20044;-68
2022/01/06 09:36:30;;;;;;;15.43;3.00;;;4.30;99.90;;;;;;5102486;28;20036;-69
2022/01/06 09:38:57;;;;;;;18.73;3.65;;;4.30;99.90;;;;;;5104371;28;20436;-68
2022/01/06 09:41:22;;;;;;;13.65;3.42;;;4.30;99.90;;;;;;5101887;28;20161;-68
2022/01/06 09:43:53;;;;;;;14.45;3.75;;;4.40;99.90;;;;;;5098759;28;20098;-68
2022/01/06 09:46:20;;;;;;;22.92;3.10;;;4.40;99.90;;;;;;5112268;27;20453;-68
2022/01/06 09:48:47;;;;;;;19.08;4.55;;;4.40;99.90;;;;;;5108577;28;20121;-68
2022/01/06 09:51:14;;;;;;;13.40;3.53;;;4.30;99.90;;;;;;5113042;28;20606;-68
2022/01/06 09:53:40;;;;;;;17.55;3.53;;;4.30;99.90;;;;;;5102381;28;20372;-68
2022/01/06 09:56:06;;;;;;;17.05;3.33;;;4.30;99.90;;;;;;5095059;28;20044;-68
2022/01/06 09:58:33;;;;;;;11.35;3.95;;;4.20;99.90;;;;;;5097821;28;20077;-68
2022/01/06 10:00:59;;;;;;;22.52;4.97;;;4.10;99.90;;;;;;5094038;28;20040;-68
2022/01/06 10:03:44;;;;;;;17.80;4.25;;;4.10;99.90;;;;;;5093506;28;20093;-68
2022/01/06 10:06:17;;;;;;;27.27;5.07;;;4.10;99.90;;;;;;5093271;28;20043;-68
2022/01/06 10:08:52;;;;;;;16.77;3.70;;;4.10;99.90;;;;;;5093475;28;20044;-68
2022/01/06 10:11:26;;;;;;;18.85;3.40;;;4.20;99.90;;;;;;5093481;28;20028;-68
2022/01/06 10:14:11;;;;;;;17.08;3.58;;;4.30;99.90;;;;;;5092742;28;20031;-68
2022/01/06 10:16:48;;;;;;;12.48;3.42;;;4.30;99.90;;;;;;5093196;28;20495;-68
2022/01/06 10:19:15;;;;;;;21.95;4.13;;;4.40;99.90;;;;;;5093567;28;20040;-68
2022/01/06 10:21:46;;;;;;;20.85;4.05;;;4.50;99.90;;;;;;5092649;28;20036;-68
2022/01/06 10:24:19;;;;;;;19.95;3.85;;;4.40;99.90;;;;;;5093304;28;20047;-68
2022/01/06 10:26:54;;;;;;;20.40;5.72;;;4.50;99.90;;;;;;5093043;28;20476;-68
2022/01/06 10:29:21;;;;;;;14.65;3.72;;;4.60;99.90;;;;;;5093157;28;20123;-68
2022/01/06 10:31:47;;;;;;;22.23;4.30;;;4.60;99.90;;;;;;5096558;28;20036;-68
2022/01/06 10:34:13;;;;;;;17.70;3.63;;;4.60;99.90;;;;;;5097254;28;20484;-68
2022/01/06 10:36:41;;;;;;;18.58;4.22;;;4.60;99.90;;;;;;5078521;28;20492;-69
2022/01/06 10:39:08;;;;;;;22.58;3.63;;;4.60;99.90;;;;;;5095869;28;20387;-68
2022/01/06 10:41:37;;;;;;;16.00;3.22;;;4.60;99.90;;;;;;5097100;28;20492;-68
2022/01/06 10:44:04;;;;;;;14.05;3.72;;;4.60;99.90;;;;;;5097405;28;20077;-68
2022/01/06 10:46:42;;;;;;;15.13;3.83;;;4.60;99.90;;;;;;5105262;28;20044;-68
2022/01/06 10:49:11;;;;;;;21.58;4.90;;;4.70;99.90;;;;;;5105263;28;20064;-69
2022/01/06 10:51:48;;;;;;;19.45;3.33;;;4.80;99.90;;;;;;5101327;28;20118;-70
2022/01/06 10:54:17;;;;;;;14.95;3.90;;;4.80;99.90;;;;;;5097586;28;20035;-68
2022/01/06 10:56:55;;;;;;;18.35;3.60;;;4.90;99.90;;;;;;5095468;28;20051;-68
2022/01/06 10:59:29;;;;;;;19.33;2.95;;;4.90;99.90;;;;;;5096814;28;20122;-68
2022/01/06 11:01:55;;;;;;;24.17;4.18;;;4.90;99.90;;;;;;5097273;28;20057;-68
2022/01/06 11:04:21;;;;;;;22.17;3.78;;;4.90;99.90;;;;;;5097052;28;20460;-69
2022/01/06 11:06:49;;;;;;;18.00;4.00;;;5.00;99.90;;;;;;5097094;28;20131;-69
2022/01/06 11:09:15;;;;;;;14.13;3.55;;;5.10;99.90;;;;;;5097047;28;20072;-69
2022/01/06 11:12:26;;;;;;;23.33;3.83;;;5.10;99.90;;;;;;5097257;28;20109;-69
2022/01/06 11:14:30;;;;;;;17.63;4.07;;;5.20;99.90;;;;;;5096364;28;20515;-69
2022/01/06 11:16:56;;;;;;;18.80;3.90;;;5.20;99.90;;;;;;5096384;28;20036;-69
2022/01/06 11:19:24;;;;;;;13.25;3.35;;;5.30;99.90;;;;;;5096161;28;20494;-68
2022/01/06 11:21:50;;;;;;;18.17;4.03;;;5.30;99.90;;;;;;5096033;28;20036;-69
2022/01/06 11:24:19;;;;;;;14.18;3.50;;;5.20;99.90;;;;;;5099122;28;20190;-69
2022/01/06 11:27:01;;;;;;;17.83;3.88;;;5.30;99.90;;;;;;5096050;28;20044;-69
2022/01/06 11:29:29;;;;;;;17.63;4.55;;;5.20;99.90;;;;;;5105673;28;20495;-69
2022/01/06 11:32:19;;;;;;;16.17;4.03;;;5.30;99.90;;;;;;5114581;28;20084;-70
2022/01/06 11:34:45;;;;;;;14.85;3.58;;;5.30;99.90;;;;;;5096041;28;20055;-69
2022/01/06 11:37:13;;;;;;;26.85;3.97;;;5.30;99.90;;;;;;5095962;28;20143;-69
2022/01/06 11:39:39;;;;;;;27.33;4.60;;;5.30;99.90;;;;;;5096453;28;20032;-69
2022/01/06 11:42:21;;;;;;;22.65;3.70;;;5.20;99.90;;;;;;5095837;28;20036;-69
2022/01/06 11:44:52;;;;;;;19.38;4.53;;;5.20;99.90;;;;;;5096619;28;20121;-69
2022/01/06 11:47:36;;;;;;;19.67;4.22;;;5.20;99.90;;;;;;5097326;28;20519;-69
2022/01/06 11:50:24;;;;;;;22.08;5.18;;;5.20;99.90;;;;;;5112573;28;20059;-69
2022/01/06 11:52:54;;;;;;;18.63;4.22;;;5.20;99.90;;;;;;5116930;28;20043;-68
2022/01/06 11:55:21;;;;;;;16.15;4.35;;;5.20;99.90;;;;;;5110072;28;20032;-68
2022/01/06 11:57:48;;;;;;;18.58;3.83;;;5.30;99.90;;;;;;5114969;28;20063;-68
2022/01/06 12:00:26;;;;;;;21.08;4.38;;;5.40;99.90;;;;;;5116479;28;20089;-67
2022/01/06 12:03:11;;;;;;;19.70;4.70;;;5.40;99.90;;;;;;5101779;28;20468;-68
2022/01/06 12:05:42;;;;;;;25.98;6.03;;;5.50;99.90;;;;;;5094648;28;20115;-68
2022/01/06 12:08:08;;;;;;;17.60;4.70;;;5.50;99.90;;;;;;5096421;28;20039;-68
2022/01/06 12:10:50;;;;;;;19.92;6.22;;;5.50;99.90;;;;;;5096418;28;20056;-68
2022/01/06 12:13:17;;;;;;;16.95;6.00;;;5.50;99.90;;;;;;5096035;28;20051;-68
2022/01/06 12:15:53;;;;;;;18.88;4.25;;;5.50;99.90;;;;;;5095710;28;20059;-68
2022/01/06 12:18:27;;;;;;;31.52;4.97;;;5.50;99.90;;;;;;5077940;28;20172;-68
2022/01/06 12:20:54;;;;;;;23.50;4.65;;;5.50;99.90;;;;;;5095494;28;20119;-68
2022/01/06 12:23:21;;;;;;;18.67;4.20;;;5.50;99.90;;;;;;5095490;28;20047;-68
2022/01/06 12:26:03;;;;;;;22.33;4.80;;;5.50;99.90;;;;;;5094742;28;20038;-69
2022/01/06 12:28:29;;;;;;;18.02;4.22;;;5.50;99.90;;;;;;5094625;28;20040;-68
2022/01/06 12:31:04;;;;;;;12.02;3.55;;;5.50;99.90;;;;;;5095229;28;20488;-69
2022/01/06 12:33:31;;;;;;;21.85;5.50;;;5.50;99.90;;;;;;5095937;28;20461;-70
2022/01/06 12:35:58;;;;;;;17.63;3.75;;;5.50;99.90;;;;;;5093314;28;20426;-69
2022/01/06 12:38:30;;;;;;;15.73;3.53;;;5.50;99.90;;;;;;5115139;28;20031;-69
2022/01/06 12:40:56;;;;;;;18.38;3.92;;;5.50;99.90;;;;;;5115732;27;20042;-69
2022/01/06 12:43:27;;;;;;;14.43;3.53;;;5.50;99.90;;;;;;5115843;28;20114;-69
2022/01/06 12:46:08;;;;;;;15.90;3.00;;;5.50;99.90;;;;;;5115136;28;20077;-69
2022/01/06 12:48:43;;;;;;;22.45;3.88;;;5.50;99.90;;;;;;5115228;28;20042;-69
2022/01/06 12:51:11;;;;;;;17.55;3.75;;;5.50;99.90;;;;;;5114999;28;20036;-69
2022/01/06 12:53:51;;;;;;;15.07;3.10;;;5.50;99.90;;;;;;5114511;28;20055;-70
2022/01/06 12:56:29;;;;;;;14.07;3.25;;;5.60;99.90;;;;;;5114475;28;20507;-69
2022/01/06 12:58:59;;;;;;;18.77;3.40;;;5.60;99.90;;;;;;5107067;28;20048;-69